Terminal Aerodrome Forecast
Issued by NWS Sterling, VA

Home | Current Version | Previous Version | Text Only | Print | Product List | Glossary On
Versions: 1 2 3 4 5 6 7 8 9 10 11 12 13 14 15 16 17 18 19
000
FTUS41 KLWX 262100 AAA
TAFCHO
TAF AMD
KCHO 262106Z 2621/2718 05008KT 2SM BR OVC004
     FM262200 03007KT 3SM BR OVC005
     FM270200 36007KT 6SM -SN OVC015
     FM270500 35005KT P6SM OVC030
     FM271400 34007KT P6SM OVC035=

USA.gov is the U.S. government's official web portal to all federal, state and local government web resources and services.